FRS93 EDFP-EDGS
Flight info
| Callsign | FRS93 |
|---|---|
| Flight time | N/A |
| Altitude | 3000 |
| Route | EDGS |
| Aircraft | K100/L-SBDGRY/S |
Departure
| Time | N/A |
|---|---|
| Airport | EDFP |
Arrival
| Time | 2026-04-28 20:00 |
|---|---|
| Airport | Siegerland Airport (EDGS) |
| Time | Latitude | Longitude | Altitude | Speed | Heading |
|---|---|---|---|---|---|
| 2026-04-28 19:31 | 50.36315 | 8.71406 | 826 ft | 0 kts | 57° |
| 2026-04-28 19:37 | 50.36337 | 8.71423 | 827 ft | 22 kts | 353° |
| 2026-04-28 19:38 | 50.36234 | 8.71202 | 814 ft | 39 kts | 230° |
| 2026-04-28 19:38 | 50.36050 | 8.70892 | 803 ft | 32 kts | 218° |
| 2026-04-28 19:38 | 50.36024 | 8.70803 | 801 ft | 2 kts | 45° |
| 2026-04-28 19:39 | 50.36117 | 8.70989 | 806 ft | 55 kts | 51° |
| 2026-04-28 19:39 | 50.36446 | 8.71621 | 941 ft | 85 kts | 44° |
| 2026-04-28 19:39 | 50.36899 | 8.72255 | 1257 ft | 93 kts | 40° |
| 2026-04-28 19:39 | 50.37469 | 8.72299 | 1483 ft | 115 kts | 296° |
| 2026-04-28 19:40 | 50.37713 | 8.70947 | 1655 ft | 127 kts | 291° |
| 2026-04-28 19:40 | 50.38020 | 8.69590 | 1687 ft | 136 kts | 302° |
| 2026-04-28 19:40 | 50.38242 | 8.68194 | 1844 ft | 134 kts | 251° |
| 2026-04-28 19:40 | 50.37570 | 8.67221 | 1952 ft | 135 kts | 216° |
| 2026-04-28 19:41 | 50.36835 | 8.66192 | 1965 ft | 148 kts | 223° |
| 2026-04-28 19:41 | 50.36103 | 8.65049 | 2005 ft | 144 kts | 215° |
| 2026-04-28 19:41 | 50.35243 | 8.65095 | 2126 ft | 128 kts | 132° |
| 2026-04-28 19:41 | 50.34724 | 8.66229 | 2003 ft | 135 kts | 125° |
| 2026-04-28 19:42 | 50.34229 | 8.67439 | 1895 ft | 119 kts | 72° |
| 2026-04-28 19:42 | 50.34765 | 8.68358 | 1570 ft | 117 kts | 44° |
| 2026-04-28 19:42 | 50.35194 | 8.69168 | 1348 ft | 84 kts | 50° |
| 2026-04-28 19:42 | 50.35443 | 8.69620 | 1182 ft | 82 kts | 54° |
| 2026-04-28 19:43 | 50.35874 | 8.70544 | 896 ft | 74 kts | 47° |
| 2026-04-28 19:43 | 50.36168 | 8.71059 | 810 ft | 48 kts | 48° |
| 2026-04-28 19:43 | 50.36452 | 8.71517 | 920 ft | 72 kts | 45° |
| 2026-04-28 19:43 | 50.36853 | 8.72104 | 1211 ft | 93 kts | 29° |
| 2026-04-28 19:44 | 50.37527 | 8.71774 | 1604 ft | 119 kts | 313° |
| 2026-04-28 19:44 | 50.37903 | 8.70497 | 1744 ft | 149 kts | 312° |
| 2026-04-28 19:44 | 50.38448 | 8.69099 | 1964 ft | 145 kts | 297° |
| 2026-04-28 19:44 | 50.38238 | 8.67691 | 2056 ft | 143 kts | 227° |
| 2026-04-28 19:45 | 50.37523 | 8.66535 | 1863 ft | 153 kts | 216° |
| 2026-04-28 19:45 | 50.36750 | 8.65433 | 1852 ft | 149 kts | 217° |
| 2026-04-28 19:45 | 50.35960 | 8.64525 | 1985 ft | 122 kts | 193° |
| 2026-04-28 19:45 | 50.35218 | 8.64782 | 1983 ft | 120 kts | 143° |
| 2026-04-28 19:46 | 50.34543 | 8.65594 | 1928 ft | 121 kts | 119° |
| 2026-04-28 19:46 | 50.34228 | 8.66759 | 1787 ft | 121 kts | 80° |
| 2026-04-28 19:46 | 50.34563 | 8.67950 | 1618 ft | 124 kts | 44° |
| 2026-04-28 19:46 | 50.35109 | 8.68956 | 1394 ft | 112 kts | 52° |
| 2026-04-28 19:47 | 50.35487 | 8.69692 | 1161 ft | 73 kts | 52° |
| 2026-04-28 19:47 | 50.35760 | 8.70331 | 978 ft | 67 kts | 49° |
| 2026-04-28 19:47 | 50.36054 | 8.70872 | 813 ft | 56 kts | 44° |
| 2026-04-28 19:47 | 50.36296 | 8.71280 | 821 ft | 68 kts | 48° |
| 2026-04-28 19:48 | 50.36683 | 8.71925 | 1129 ft | 85 kts | 49° |
| 2026-04-28 19:48 | 50.37185 | 8.72402 | 1556 ft | 107 kts | 339° |
| 2026-04-28 19:48 | 50.37578 | 8.71186 | 1778 ft | 142 kts | 282° |
| 2026-04-28 19:48 | 50.37799 | 8.69585 | 2134 ft | 153 kts | 284° |
| 2026-04-28 19:49 | 50.37948 | 8.68019 | 2634 ft | 150 kts | 280° |
| 2026-04-28 19:49 | 50.38236 | 8.66348 | 2491 ft | 174 kts | 303° |
| 2026-04-28 19:49 | 50.38908 | 8.64728 | 2511 ft | 177 kts | 312° |
| 2026-04-28 19:49 | 50.39736 | 8.63294 | 2513 ft | 180 kts | 321° |
| 2026-04-28 19:50 | 50.41611 | 8.60692 | 2502 ft | 174 kts | 343° |
| 2026-04-28 19:50 | 50.42617 | 8.59639 | 2514 ft | 182 kts | 311° |
| 2026-04-28 19:50 | 50.43331 | 8.57975 | 2515 ft | 182 kts | 317° |
| 2026-04-28 19:51 | 50.44184 | 8.56527 | 2514 ft | 185 kts | 315° |
| 2026-04-28 19:51 | 50.45035 | 8.55000 | 2519 ft | 187 kts | 315° |
| 2026-04-28 19:51 | 50.45890 | 8.53475 | 2519 ft | 186 kts | 315° |
| 2026-04-28 19:51 | 50.46754 | 8.51968 | 2521 ft | 186 kts | 315° |
| 2026-04-28 19:52 | 50.47615 | 8.50451 | 2527 ft | 186 kts | 313° |
| 2026-04-28 19:52 | 50.48453 | 8.48887 | 2529 ft | 188 kts | 312° |
| 2026-04-28 19:52 | 50.49292 | 8.47322 | 2524 ft | 188 kts | 313° |
| 2026-04-28 19:52 | 50.50128 | 8.45760 | 2527 ft | 186 kts | 313° |
| 2026-04-28 19:53 | 50.50972 | 8.44212 | 2523 ft | 187 kts | 314° |
| 2026-04-28 19:53 | 50.51815 | 8.42703 | 2516 ft | 185 kts | 321° |
| 2026-04-28 19:53 | 50.52823 | 8.41476 | 2522 ft | 184 kts | 327° |
| 2026-04-28 19:53 | 50.53848 | 8.40263 | 2525 ft | 185 kts | 327° |
| 2026-04-28 19:54 | 50.54875 | 8.39045 | 2520 ft | 184 kts | 327° |
| 2026-04-28 19:54 | 50.55856 | 8.37731 | 2517 ft | 188 kts | 319° |
| 2026-04-28 19:54 | 50.56747 | 8.36230 | 2524 ft | 187 kts | 316° |
| 2026-04-28 19:54 | 50.57587 | 8.34660 | 2511 ft | 187 kts | 314° |
| 2026-04-28 19:55 | 50.58397 | 8.33066 | 2508 ft | 187 kts | 314° |
| 2026-04-28 19:55 | 50.59215 | 8.31512 | 2525 ft | 184 kts | 313° |
| 2026-04-28 19:55 | 50.59982 | 8.29866 | 2521 ft | 188 kts | 304° |
| 2026-04-28 19:55 | 50.60714 | 8.28188 | 2520 ft | 189 kts | 309° |
| 2026-04-28 19:56 | 50.61448 | 8.26487 | 2706 ft | 182 kts | 305° |
| 2026-04-28 19:56 | 50.62216 | 8.24970 | 2829 ft | 178 kts | 314° |
| 2026-04-28 19:56 | 50.62996 | 8.23383 | 2648 ft | 189 kts | 308° |
| 2026-04-28 19:56 | 50.63755 | 8.21759 | 2734 ft | 177 kts | 315° |
| 2026-04-28 19:57 | 50.64565 | 8.20306 | 2675 ft | 173 kts | 313° |
| 2026-04-28 19:57 | 50.65273 | 8.18919 | 2766 ft | 158 kts | 311° |
| 2026-04-28 19:57 | 50.65928 | 8.17530 | 2735 ft | 154 kts | 310° |
| 2026-04-28 19:57 | 50.66599 | 8.16223 | 2800 ft | 149 kts | 316° |
| 2026-04-28 19:58 | 50.67263 | 8.15075 | 2974 ft | 139 kts | 324° |
| 2026-04-28 19:58 | 50.67950 | 8.13924 | 2911 ft | 149 kts | 311° |
| 2026-04-28 19:58 | 50.68500 | 8.12674 | 2821 ft | 129 kts | 309° |
| 2026-04-28 19:58 | 50.69001 | 8.11633 | 2696 ft | 102 kts | 315° |
| 2026-04-28 19:59 | 50.69397 | 8.10845 | 2500 ft | 84 kts | 319° |
| 2026-04-28 19:59 | 50.69773 | 8.10152 | 2314 ft | 80 kts | 321° |
| 2026-04-28 19:59 | 50.70166 | 8.09461 | 2137 ft | 85 kts | 319° |
| 2026-04-28 19:59 | 50.70498 | 8.08809 | 1974 ft | 59 kts | 322° |
| 2026-04-28 20:00 | 50.70710 | 8.08426 | 1958 ft | 31 kts | 288° |
| 2026-04-28 20:00 | 50.70720 | 8.08164 | 1960 ft | 20 kts | 260° |
| 2026-04-28 20:00 | 50.70676 | 8.08042 | 1960 ft | 12 kts | 229° |
| 2026-04-28 20:00 | 50.70573 | 8.07896 | 1960 ft | 22 kts | 240° |
| 2026-04-28 20:01 | 50.70540 | 8.07735 | 1960 ft | 11 kts | 326° |
| 2026-04-28 20:01 | 50.70546 | 8.07730 | 1960 ft | 0 kts | 332° |